Oakland, Kentucky
Current Conditions -  °F | °C
As of 3:53 AM on Thursday 18 Dec 2014 (Local Time) from KBWG Reporting Station
Unknown Precip Unknown Precip  
Wind Chill: 25°   Ceiling: 9500
Heat Index: 31°   Visibility: 6mi
Dew Point: 25°   Wind: 6mph
Humidity: 79%   Direction: 80°E
Pressure: 30.25"   Gusts: NA
Location:  37.04°N, 86.25°W
Report Text: KBWG 180953Z AUTO 08005KT 6SM UP SCT080 OVC095 M01/M04 A3025 RMK AO2 SLP247 P0002 T10061039
Loading
Personal Weather Stations






























Interactive Weather Map New forecast layout! Learn more

10-Day Weather Forecast

Advertisements
Track Severe Weather on mobile